Details From VIDP - Indira Gandhi Intl
To VNKT - Kathmandu Tribhuvan Intl
Flight Number -
Tags Decoded
Created
Modified
Stats Distance 487 nm / 902 km
Max Altitude 35,000 ft / 10,668 m
Waypoints 4
Social Downloads 3
Likes 0
Share VATSIM

Download

Looking for another format? Having issues loading an existing format? Contact us
Advertisement - Login to hide

Notes

Decoded

Route

VIDP LLK SMR VNKT

ID Type Via Altitude Latitude Longitude Leg Dist Tot Dist Heading (true) Name
O VIDP APT - 0 ft / 0 m 28.57049˚ 77.08804˚ - 0 nm - -
LLK VOR - 35,000 ft / 10,668 m 26.76220˚ 80.88047˚ 229 nm 229 nm 117° / 119° LUCKNOW VOR-DME
SMR VOR - 17,415 ft / 5,308 m 27.16417˚ 84.98222˚ 220 nm 449 nm 83° / 85° SIMARA VOR-DME
O VNKT APT - 0 ft / 0 m 27.68381˚ 85.35342˚ 36 nm 486 nm 32° / 32° -

Altitude Profile

Advertisement - Login to hide

Weather


0- 5 10 15 20 25 30 35+ Temperature / ° C

Clouds and Precipitation
Forecast for 2017-12-14 18:00 UTC. Updated 2 hours ago

Ground ~20,000 ft ~40,000 ft Winds

VIDP

Details ICAO VIDP (DEL)
Name INDIRA GANDHI INTL
Region India
Timezone Asia/Kolkata (UTC+5.5)
Stats Elevation 777 ft / 237 m (AMSL)
Location 28.566496° 77.103090°
Runways 2
Magnetic Variation 1.217° E

METAR

VIDP 141630Z 35005KT 1200 R28/P2000 R29/P2000 BR NSC 11/10 Q1020 NOSIG

Decode

TAF

TAF VIDP 141100Z 1412/1518 31006KT 1200 FU NSC BECMG 1416/1418 VRB02KT 0700 MIFG BECMG 1500/1502 0300 FG BECMG 1505/1507 30006KT 1500 FU

Decode

Departure Runways

ID Width Length Bearing (true) Bearing (mag) Surface Threshold Offset Overrun Length
09 150 ft / 46 m 9,270 ft / 2,826 m 91.50° 90.28° Asphalt 0 ft / 0 m 195 ft / 59 m
10 150 ft / 46 m 12,488 ft / 3,807 m 104.67° 103.45° Asphalt 0 ft / 0 m 880 ft / 268 m
27 150 ft / 46 m 9,270 ft / 2,826 m 271.52° 270.30° Asphalt 499 ft / 152 m 0 ft / 0 m
28 150 ft / 46 m 12,488 ft / 3,807 m 284.69° 283.47° Asphalt 0 ft / 0 m 470 ft / 143 m

VNKT

Details ICAO VNKT (KTM)
Name Kathmandu Tribhuvan Intl
Region Nepal
Timezone Asia/Kathmandu (UTC+5.8)
Stats Elevation 4,390 ft / 1,338 m (AMSL)
Location 27.696583° 85.359100°
Runways 1
Magnetic Variation 0.492° E

METAR

VNKT 141650Z 11004KT 6000 FEW020 08/04 Q1022 NOSIG

Decode

TAF

TAF VNKT 141100Z 1412/1512 28005KT 8000 FEW020 BECMG 1414/1415 VRB02KT 6000 FEW015 BECMG 1500/1502 3000 BR FEW010 PROB30 1501/1503 2000 BR BECMG 1504/1505 13005KT 5000 HZ FEW015 BECMG 1507/1508 29008KT 8000 FEW020

Decode

Destination Runways

ID Width Length Bearing (true) Bearing (mag) Surface Threshold Offset Overrun Length
02 148 ft / 45 m 10,017 ft / 3,053 m 21.50° 21.01° Asphalt 0 ft / 0 m 0 ft / 0 m
20 148 ft / 45 m 10,017 ft / 3,053 m 201.51° 201.02° Asphalt 400 ft / 122 m 0 ft / 0 m

Popular Alternatives